Time;durP1;ratioP1;P1;durP2;ratioP2;P2;SDS_P1;SDS_P2;PMS_P1;PMS_P2;Temp;Humidity;BMP_temperature;BMP_pressure;BME280_temperature;BME280_humidity;BME280_pressure;Samples;Min_cycle;Max_cycle;Signal;HPM_P1;HPM_P2
2022/06/08 00:00:19;;;;;;;7.35;3.78;;;16.60;99.90;;;;;;5025274;28;20112;-72
2022/06/08 00:02:58;;;;;;;5.03;2.90;;;16.60;99.90;;;;;;5028516;28;20101;-72
2022/06/08 00:05:24;;;;;;;5.28;3.60;;;16.60;99.90;;;;;;5019777;28;20029;-72
2022/06/08 00:07:49;;;;;;;7.43;3.47;;;16.50;99.90;;;;;;5033068;28;20017;-72
2022/06/08 00:10:15;;;;;;;9.23;3.10;;;16.50;99.90;;;;;;5019173;28;20032;-72
2022/06/08 00:12:41;;;;;;;5.22;3.30;;;16.50;99.90;;;;;;5036551;28;20030;-72
2022/06/08 00:15:10;;;;;;;6.68;3.67;;;16.50;99.90;;;;;;5014178;28;20033;-72
2022/06/08 00:17:36;;;;;;;3.45;3.13;;;16.40;99.90;;;;;;5024056;28;20029;-72
2022/06/08 00:20:05;;;;;;;4.00;3.08;;;16.40;99.90;;;;;;5009269;28;20060;-72
2022/06/08 00:22:30;;;;;;;6.10;3.20;;;16.40;99.90;;;;;;5031746;28;20076;-72
2022/06/08 00:24:56;;;;;;;7.25;3.63;;;16.30;99.90;;;;;;5019874;28;20609;-72
2022/06/08 00:27:22;;;;;;;4.93;3.25;;;16.30;99.90;;;;;;5033758;28;20025;-72
2022/06/08 00:29:48;;;;;;;4.85;3.45;;;16.30;99.90;;;;;;5014125;28;20033;-72
2022/06/08 00:32:13;;;;;;;11.43;3.90;;;16.30;99.90;;;;;;5034179;28;20116;-72
2022/06/08 00:34:39;;;;;;;6.72;3.95;;;16.20;99.90;;;;;;5022407;28;20022;-72
2022/06/08 00:37:05;;;;;;;5.93;3.85;;;16.20;99.90;;;;;;5025983;28;20828;-72
2022/06/08 00:39:31;;;;;;;5.07;3.85;;;16.20;99.90;;;;;;5029497;28;20022;-72
2022/06/08 00:42:04;;;;;;;5.82;3.63;;;16.20;99.90;;;;;;5031049;28;20079;-72
2022/06/08 00:44:46;;;;;;;8.07;4.70;;;16.20;99.90;;;;;;5029766;28;20437;-73
2022/06/08 00:47:20;;;;;;;5.25;3.25;;;16.10;99.90;;;;;;5006737;28;20045;-72
2022/06/08 00:50:09;;;;;;;9.23;3.92;;;16.10;99.90;;;;;;5031509;28;20441;-73
2022/06/08 00:52:35;;;;;;;8.52;4.43;;;16.10;99.90;;;;;;5035753;28;20017;-73
2022/06/08 00:55:08;;;;;;;7.38;3.72;;;16.10;99.90;;;;;;5035785;28;20029;-72
2022/06/08 00:57:42;;;;;;;7.75;4.22;;;16.10;99.90;;;;;;5036634;28;20026;-73
2022/06/08 01:00:16;;;;;;;7.30;3.42;;;16.10;99.90;;;;;;5002189;28;20080;-72
2022/06/08 01:02:42;;;;;;;8.40;3.10;;;16.10;99.90;;;;;;5019049;28;20025;-72
2022/06/08 01:05:44;;;;;;;6.55;4.28;;;16.10;99.90;;;;;;5034425;28;20024;-73
2022/06/08 01:08:21;;;;;;;4.25;3.75;;;16.00;99.90;;;;;;5003531;28;20029;-72
2022/06/08 01:10:51;;;;;;;7.00;4.57;;;16.00;99.90;;;;;;5031922;28;20022;-73
2022/06/08 01:13:17;;;;;;;5.32;4.75;;;16.00;99.90;;;;;;5034701;28;20029;-73
2022/06/08 01:15:43;;;;;;;7.13;4.28;;;16.00;99.90;;;;;;5033937;28;20022;-73
2022/06/08 01:18:10;;;;;;;6.35;4.18;;;15.90;99.90;;;;;;5018993;28;20024;-74
2022/06/08 01:20:51;;;;;;;6.30;3.92;;;15.90;99.90;;;;;;5023306;28;20026;-72
2022/06/08 01:23:17;;;;;;;;;;;15.90;99.90;;;;;;5003689;28;20048;-72
2022/06/08 01:26:00;;;;;;;12.70;4.38;;;15.90;99.90;;;;;;5032155;28;20286;-72
2022/06/08 01:28:59;;;;;;;6.10;3.83;;;15.90;99.90;;;;;;5037014;28;20026;-73
2022/06/08 01:31:36;;;;;;;5.50;3.85;;;15.80;99.90;;;;;;5024756;28;20053;-73
2022/06/08 01:34:14;;;;;;;7.63;4.13;;;15.80;99.90;;;;;;5033542;28;20022;-72
2022/06/08 01:37:01;;;;;;;4.97;4.10;;;15.80;99.90;;;;;;5011832;28;20050;-73
2022/06/08 01:39:42;;;;;;;9.70;4.30;;;15.80;99.90;;;;;;5024071;28;20026;-73
2022/06/08 01:42:25;;;;;;;6.25;4.47;;;15.70;99.90;;;;;;5009844;28;20018;-73
2022/06/08 01:45:33;;;;;;;6.82;4.60;;;15.70;99.90;;;;;;5031004;28;20474;-72
2022/06/08 01:48:01;;;;;;;7.53;4.07;;;15.60;99.90;;;;;;5004692;28;20121;-73
2022/06/08 01:50:48;;;;;;;7.28;4.70;;;15.60;99.90;;;;;;5012776;28;20044;-73
2022/06/08 01:53:24;;;;;;;9.75;4.60;;;15.60;99.90;;;;;;5011054;28;20030;-72
2022/06/08 01:56:13;;;;;;;9.95;4.00;;;15.60;99.90;;;;;;5012654;28;20030;-72
2022/06/08 01:59:09;;;;;;;10.05;4.88;;;15.60;99.90;;;;;;5008536;28;20105;-72
2022/06/08 02:01:49;;;;;;;6.47;4.57;;;15.70;99.90;;;;;;5014799;28;20053;-73
2022/06/08 02:04:28;;;;;;;6.32;4.55;;;15.70;99.90;;;;;;5016376;28;20018;-73
2022/06/08 02:07:13;;;;;;;18.02;5.07;;;15.70;99.90;;;;;;5009033;28;20076;-73
2022/06/08 02:09:59;;;;;;;6.75;4.78;;;15.70;99.90;;;;;;5016566;28;20510;-73
2022/06/08 02:12:26;;;;;;;8.13;4.78;;;15.80;99.90;;;;;;5001550;28;20041;-72
2022/06/08 02:15:04;;;;;;;8.88;4.80;;;15.80;99.90;;;;;;5015386;28;20101;-73
2022/06/08 02:17:47;;;;;;;8.07;4.68;;;15.90;99.90;;;;;;5009983;28;20081;-73
2022/06/08 02:20:17;;;;;;;6.18;4.38;;;15.90;99.90;;;;;;5003486;28;20134;-73
2022/06/08 02:22:50;;;;;;;10.05;5.43;;;15.90;99.90;;;;;;5014821;28;20434;-73
2022/06/08 02:25:54;;;;;;;12.15;5.07;;;15.90;99.90;;;;;;5010389;28;20025;-73
2022/06/08 02:28:31;;;;;;;7.57;4.80;;;15.90;99.90;;;;;;5016198;28;20501;-73
2022/06/08 02:31:08;;;;;;;7.03;4.85;;;15.90;99.90;;;;;;5015842;28;20574;-73
2022/06/08 02:36:31;;;;;;;10.65;5.55;;;15.80;99.90;;;;;;5016282;28;20056;-73
2022/06/08 02:39:16;;;;;;;7.90;5.13;;;15.80;99.90;;;;;;5017825;28;20471;-73
2022/06/08 02:41:44;;;;;;;12.13;5.35;;;15.80;99.90;;;;;;5017564;28;20060;-73
2022/06/08 02:44:16;;;;;;;5.80;5.20;;;15.90;99.90;;;;;;5015376;28;20026;-73
2022/06/08 02:47:11;;;;;;;9.13;5.30;;;15.80;99.90;;;;;;5017554;28;20034;-73
2022/06/08 02:49:37;;;;;;;7.93;4.90;;;15.90;99.90;;;;;;4999057;28;20043;-73
2022/06/08 02:52:17;;;;;;;6.57;5.03;;;15.90;99.90;;;;;;4993529;28;20046;-73
2022/06/08 02:54:44;;;;;;;8.98;5.03;;;15.90;99.90;;;;;;4992949;28;20042;-73
2022/06/08 02:57:23;;;;;;;8.00;4.47;;;15.90;99.90;;;;;;4995392;28;20030;-73
2022/06/08 02:59:59;;;;;;;7.68;4.25;;;15.90;99.90;;;;;;4998478;28;20061;-73
2022/06/08 03:02:33;;;;;;;6.50;4.35;;;15.80;99.90;;;;;;4995068;28;20515;-73
2022/06/08 03:05:08;;;;;;;6.68;4.78;;;15.80;99.90;;;;;;4994869;28;20105;-73
2022/06/08 03:07:58;;;;;;;7.10;4.93;;;15.80;99.90;;;;;;4994155;28;20037;-73
2022/06/08 03:10:26;;;;;;;10.07;5.30;;;15.80;99.90;;;;;;4991519;28;20447;-73
2022/06/08 03:13:04;;;;;;;6.53;4.80;;;15.80;99.90;;;;;;4992264;28;20057;-73
2022/06/08 03:15:31;;;;;;;10.20;5.22;;;15.80;99.90;;;;;;4997907;28;20095;-73
2022/06/08 03:17:57;;;;;;;8.63;5.07;;;15.80;99.90;;;;;;4995481;28;20046;-74
2022/06/08 03:20:25;;;;;;;10.93;5.43;;;15.80;99.90;;;;;;4993702;28;20081;-73
2022/06/08 03:22:52;;;;;;;7.82;5.03;;;15.80;99.90;;;;;;4998017;28;20109;-73
2022/06/08 03:25:18;;;;;;;8.10;4.88;;;15.80;99.90;;;;;;4996152;28;20478;-73
2022/06/08 03:27:46;;;;;;;8.98;5.10;;;15.80;99.90;;;;;;4994036;28;20018;-73
2022/06/08 03:30:13;;;;;;;7.63;4.95;;;15.70;99.90;;;;;;4995001;28;20668;-73
2022/06/08 03:32:38;;;;;;;7.25;4.68;;;15.80;99.90;;;;;;4997440;28;20100;-73
2022/06/08 03:35:05;;;;;;;7.72;5.45;;;15.80;99.90;;;;;;4994913;28;20057;-73
2022/06/08 03:37:31;;;;;;;10.02;5.55;;;15.70;99.90;;;;;;4995708;28;20030;-73
2022/06/08 03:39:57;;;;;;;10.27;5.53;;;15.70;99.90;;;;;;4995293;28;20068;-73
2022/06/08 03:42:22;;;;;;;7.95;4.47;;;15.70;99.90;;;;;;4994627;28;20379;-73
2022/06/08 03:44:48;;;;;;;12.90;4.85;;;15.70;99.90;;;;;;4997922;28;20022;-73
2022/06/08 03:47:20;;;;;;;10.43;5.13;;;15.70;99.90;;;;;;5002732;28;20041;-73
2022/06/08 03:49:48;;;;;;;6.70;4.93;;;15.70;99.90;;;;;;5035285;28;20091;-73
2022/06/08 03:52:26;;;;;;;5.93;5.32;;;15.70;99.90;;;;;;5037070;28;20388;-73
2022/06/08 03:54:57;;;;;;;6.03;5.05;;;15.80;99.90;;;;;;5028194;28;20026;-73
2022/06/08 03:57:24;;;;;;;8.38;4.85;;;15.80;99.90;;;;;;5030714;28;20381;-73
2022/06/08 03:59:51;;;;;;;7.50;5.50;;;15.80;99.90;;;;;;5034653;28;20144;-73
2022/06/08 04:02:17;;;;;;;8.18;4.72;;;15.80;99.90;;;;;;5034801;28;20040;-73
2022/06/08 04:04:44;;;;;;;7.47;5.25;;;15.80;99.90;;;;;;5032938;28;20025;-73
2022/06/08 04:07:11;;;;;;;7.82;4.68;;;15.80;99.90;;;;;;5036545;28;20028;-73
2022/06/08 04:09:37;;;;;;;9.07;5.47;;;15.80;99.90;;;;;;5019258;28;20022;-73
2022/06/08 04:12:04;;;;;;;8.30;5.30;;;15.80;99.90;;;;;;5027690;28;20022;-73
2022/06/08 04:14:30;;;;;;;11.85;5.70;;;15.80;99.90;;;;;;5020882;28;20029;-73
2022/06/08 04:16:56;;;;;;;9.63;5.07;;;15.80;99.90;;;;;;5035383;28;20018;-73
2022/06/08 04:19:22;;;;;;;7.95;5.13;;;15.90;99.90;;;;;;5010055;28;20025;-73
2022/06/08 04:21:48;;;;;;;9.23;4.65;;;15.90;99.90;;;;;;5022950;28;20229;-73
2022/06/08 04:24:16;;;;;;;8.93;4.85;;;15.90;99.90;;;;;;5010009;28;20393;-73
2022/06/08 04:26:42;;;;;;;6.68;4.90;;;15.90;99.90;;;;;;5008425;28;20025;-73
2022/06/08 04:29:09;;;;;;;8.52;4.95;;;15.90;99.90;;;;;;5030812;28;20025;-73
2022/06/08 04:31:35;;;;;;;7.57;4.72;;;15.90;99.90;;;;;;5030447;28;20363;-72
2022/06/08 04:34:04;;;;;;;6.43;4.45;;;16.00;99.90;;;;;;5032806;28;20029;-73
2022/06/08 04:36:31;;;;;;;7.68;5.15;;;16.00;99.90;;;;;;5016150;28;20026;-73
2022/06/08 04:38:58;;;;;;;7.50;4.85;;;16.00;99.90;;;;;;5035235;28;20020;-73
2022/06/08 04:41:24;;;;;;;6.05;5.20;;;16.00;99.90;;;;;;5035950;28;20021;-73
2022/06/08 04:43:50;;;;;;;9.38;5.43;;;16.00;99.90;;;;;;5031273;28;20022;-73
2022/06/08 04:46:17;;;;;;;8.05;4.85;;;16.00;99.90;;;;;;5018677;28;20025;-73
2022/06/08 04:48:44;;;;;;;6.45;5.65;;;16.10;99.90;;;;;;5003085;28;20050;-73
2022/06/08 04:51:11;;;;;;;13.60;4.93;;;16.10;99.90;;;;;;5028945;28;20029;-73
2022/06/08 04:53:39;;;;;;;7.32;4.90;;;16.10;99.90;;;;;;5032960;28;20494;-73
2022/06/08 04:56:06;;;;;;;7.43;5.32;;;16.20;99.90;;;;;;5019187;28;20021;-73
2022/06/08 04:58:32;;;;;;;8.65;5.55;;;16.20;99.90;;;;;;5029022;28;20037;-73
2022/06/08 05:00:57;;;;;;;11.02;5.47;;;16.30;99.90;;;;;;5028796;28;20068;-73
2022/06/08 05:03:24;;;;;;;6.30;4.88;;;16.30;99.90;;;;;;5031128;28;20017;-73
2022/06/08 05:05:49;;;;;;;6.47;5.15;;;16.30;99.90;;;;;;5022549;28;20068;-73
2022/06/08 05:08:18;;;;;;;8.85;5.35;;;16.40;99.90;;;;;;5027579;28;20022;-73
2022/06/08 05:10:45;;;;;;;7.32;5.68;;;16.50;99.90;;;;;;5013137;28;20026;-73
2022/06/08 05:13:12;;;;;;;15.05;8.40;;;16.50;99.90;;;;;;5031613;28;20029;-73
2022/06/08 05:15:40;;;;;;;9.35;6.22;;;16.50;99.90;;;;;;5009326;28;20022;-73
2022/06/08 05:18:06;;;;;;;14.80;6.03;;;16.60;99.90;;;;;;5033255;28;20036;-73
2022/06/08 05:20:34;;;;;;;9.73;6.32;;;16.70;99.90;;;;;;5013182;28;20032;-73
2022/06/08 05:23:00;;;;;;;8.20;5.63;;;16.80;99.90;;;;;;5035433;28;20036;-74
2022/06/08 05:25:33;;;;;;;8.52;6.20;;;16.90;99.90;;;;;;5036840;28;20553;-73
2022/06/08 05:27:59;;;;;;;17.15;6.95;;;17.00;99.90;;;;;;5031790;28;20112;-74
2022/06/08 05:30:26;;;;;;;11.43;6.65;;;17.10;99.90;;;;;;5027443;28;20026;-73
2022/06/08 05:32:53;;;;;;;12.65;6.88;;;17.10;99.90;;;;;;5032353;28;20025;-74
2022/06/08 05:35:20;;;;;;;10.73;6.35;;;17.10;99.90;;;;;;5030320;28;20033;-73
2022/06/08 05:37:47;;;;;;;10.32;5.75;;;17.20;99.90;;;;;;5027895;28;20459;-72
2022/06/08 05:40:13;;;;;;;7.32;5.90;;;17.20;99.90;;;;;;5005584;28;20569;-73
2022/06/08 05:42:40;;;;;;;11.98;6.68;;;17.30;99.90;;;;;;5030107;28;20021;-74
2022/06/08 05:45:08;;;;;;;14.95;6.63;;;17.30;99.90;;;;;;5031108;28;20053;-73
2022/06/08 05:47:34;;;;;;;8.38;6.13;;;17.40;99.90;;;;;;5032966;28;20073;-74
2022/06/08 05:50:00;;;;;;;11.32;6.90;;;17.40;99.90;;;;;;5026010;28;20029;-73
2022/06/08 05:52:26;;;;;;;9.90;6.03;;;17.60;99.90;;;;;;5033678;28;20028;-73
2022/06/08 05:54:52;;;;;;;15.60;6.13;;;17.60;99.90;;;;;;5013666;28;20032;-73
2022/06/08 05:57:18;;;;;;;7.15;5.80;;;17.70;99.90;;;;;;5026880;28;20022;-73
2022/06/08 05:59:44;;;;;;;10.00;5.57;;;17.90;99.90;;;;;;5033063;28;20104;-74
2022/06/08 06:02:14;;;;;;;15.82;6.43;;;18.00;99.90;;;;;;5032228;28;20021;-73
2022/06/08 06:04:42;;;;;;;11.25;5.82;;;18.10;99.90;;;;;;5034122;28;20056;-73
2022/06/08 06:07:08;;;;;;;7.38;4.97;;;18.20;99.90;;;;;;5032982;28;20026;-73
2022/06/08 06:09:34;;;;;;;8.18;4.63;;;18.30;99.90;;;;;;5031374;28;20071;-73
2022/06/08 06:12:00;;;;;;;12.40;6.10;;;18.40;99.90;;;;;;5013906;28;20017;-73
2022/06/08 06:14:26;;;;;;;8.60;4.40;;;18.50;99.90;;;;;;5026302;28;20022;-73
2022/06/08 06:16:52;;;;;;;12.15;4.13;;;18.50;99.90;;;;;;5027903;28;20153;-73
2022/06/08 06:19:18;;;;;;;7.88;3.85;;;18.50;99.90;;;;;;5010838;28;20048;-74
2022/06/08 06:21:43;;;;;;;12.45;4.30;;;18.50;99.90;;;;;;5018168;28;20028;-73
2022/06/08 06:24:09;;;;;;;14.32;5.10;;;18.50;99.90;;;;;;5032354;28;20023;-74
2022/06/08 06:26:35;;;;;;;10.93;4.25;;;18.60;99.90;;;;;;5032583;28;20018;-74
2022/06/08 06:29:01;;;;;;;9.13;4.78;;;18.60;99.90;;;;;;5033804;28;20096;-74
2022/06/08 06:31:30;;;;;;;11.82;4.63;;;18.60;99.90;;;;;;5036738;28;20025;-74
2022/06/08 06:33:56;;;;;;;11.77;4.55;;;18.70;99.90;;;;;;5017886;28;20424;-73
2022/06/08 06:36:22;;;;;;;9.43;4.88;;;18.70;99.90;;;;;;5038628;28;20026;-74
2022/06/08 06:38:48;;;;;;;8.77;4.43;;;18.90;99.90;;;;;;5017052;28;20037;-73
2022/06/08 06:41:16;;;;;;;7.95;4.72;;;19.00;99.90;;;;;;5002866;28;20026;-74
2022/06/08 06:43:43;;;;;;;13.10;5.18;;;19.10;99.90;;;;;;5005746;28;20026;-74
2022/06/08 06:46:13;;;;;;;12.02;5.10;;;19.00;99.90;;;;;;5032837;28;20013;-74
2022/06/08 06:48:39;;;;;;;10.68;4.82;;;19.00;99.90;;;;;;5037652;28;20053;-73
2022/06/08 06:51:06;;;;;;;17.77;4.70;;;19.00;99.90;;;;;;5019222;28;20037;-74
2022/06/08 06:53:33;;;;;;;10.27;4.93;;;19.00;99.90;;;;;;5038430;28;20044;-74
2022/06/08 06:55:59;;;;;;;11.82;5.10;;;19.00;99.90;;;;;;5033291;28;20056;-74
2022/06/08 06:58:25;;;;;;;10.02;5.00;;;18.90;99.90;;;;;;5035292;28;20061;-74
2022/06/08 07:00:51;;;;;;;11.57;5.47;;;18.80;99.90;;;;;;5013237;28;20113;-74
2022/06/08 07:03:16;;;;;;;14.55;5.32;;;18.70;99.90;;;;;;5011755;28;20116;-74
2022/06/08 07:05:43;;;;;;;8.43;5.25;;;18.60;99.90;;;;;;5025454;28;20010;-73
2022/06/08 07:08:09;;;;;;;11.77;5.00;;;18.60;99.90;;;;;;5037907;28;20060;-73
2022/06/08 07:10:36;;;;;;;15.85;4.78;;;18.60;99.90;;;;;;5028651;28;20026;-73
2022/06/08 07:13:03;;;;;;;5.93;4.22;;;18.50;99.90;;;;;;5016099;28;20029;-74
2022/06/08 07:15:29;;;;;;;14.93;4.32;;;18.50;99.90;;;;;;5032420;28;20025;-73
2022/06/08 07:17:55;;;;;;;11.15;4.60;;;18.60;99.90;;;;;;5036029;28;20029;-73
2022/06/08 07:20:21;;;;;;;11.15;4.80;;;18.70;99.90;;;;;;5036229;28;20483;-73
2022/06/08 07:22:49;;;;;;;7.82;4.68;;;18.70;99.90;;;;;;5020072;28;20025;-73
2022/06/08 07:25:15;;;;;;;8.13;3.42;;;18.80;99.90;;;;;;5038430;28;20393;-73
2022/06/08 07:27:41;;;;;;;13.27;4.40;;;18.80;99.90;;;;;;5022148;28;20050;-74
2022/06/08 07:30:08;;;;;;;8.60;3.60;;;18.80;99.90;;;;;;5003181;28;20022;-73
2022/06/08 07:32:35;;;;;;;6.57;3.13;;;18.90;99.90;;;;;;5008316;28;20040;-73
2022/06/08 07:35:03;;;;;;;9.73;3.78;;;18.80;99.90;;;;;;5023389;28;20417;-74
2022/06/08 07:37:29;;;;;;;9.38;3.38;;;18.80;99.90;;;;;;5018810;28;20028;-74
2022/06/08 07:39:55;;;;;;;13.52;3.95;;;18.80;99.90;;;;;;5016915;28;20040;-74
2022/06/08 07:42:21;;;;;;;7.10;3.08;;;18.80;99.90;;;;;;5031837;28;20030;-73
2022/06/08 07:44:48;;;;;;;12.05;3.45;;;18.70;99.90;;;;;;5014633;28;20025;-74
2022/06/08 07:47:14;;;;;;;7.40;3.47;;;18.60;99.90;;;;;;5004362;28;20402;-73
2022/06/08 07:49:41;;;;;;;9.93;3.53;;;18.70;99.90;;;;;;5021556;28;20018;-74
2022/06/08 07:52:16;;;;;;;9.27;3.83;;;18.60;99.90;;;;;;5024604;28;20025;-74
2022/06/08 07:54:43;;;;;;;11.13;3.30;;;18.50;99.90;;;;;;5029986;28;20487;-74
2022/06/08 07:57:23;;;;;;;10.35;4.03;;;18.40;99.90;;;;;;5028353;28;20056;-74
2022/06/08 07:59:49;;;;;;;11.75;3.55;;;18.30;99.90;;;;;;5027853;28;20473;-74
2022/06/08 08:02:16;;;;;;;9.70;2.97;;;18.10;99.90;;;;;;5030297;28;20085;-75
2022/06/08 08:04:42;;;;;;;11.13;4.32;;;18.00;99.90;;;;;;5030261;28;20088;-73
2022/06/08 08:07:09;;;;;;;10.30;3.55;;;17.80;99.90;;;;;;5036920;28;20013;-74
2022/06/08 08:09:35;;;;;;;6.15;2.88;;;17.60;99.90;;;;;;5036775;28;20022;-75
2022/06/08 08:12:02;;;;;;;12.32;3.95;;;17.40;99.90;;;;;;5013125;28;20049;-74
2022/06/08 08:14:29;;;;;;;6.95;3.72;;;17.20;99.90;;;;;;5009966;28;20026;-74
2022/06/08 08:16:55;;;;;;;7.30;3.70;;;17.00;99.90;;;;;;5036111;28;20071;-73
2022/06/08 08:19:23;;;;;;;11.95;4.82;;;16.90;99.90;;;;;;5036313;28;20017;-74
2022/06/08 08:21:49;;;;;;;5.45;4.03;;;16.70;99.90;;;;;;5009771;28;20398;-75
2022/06/08 08:24:16;;;;;;;13.68;4.70;;;16.50;99.90;;;;;;5015071;28;20026;-74
2022/06/08 08:26:47;;;;;;;9.10;4.55;;;16.40;99.90;;;;;;5020274;28;20133;-74
2022/06/08 08:29:13;;;;;;;10.93;5.57;;;16.20;99.90;;;;;;5024143;28;20105;-74
2022/06/08 08:31:40;;;;;;;18.88;5.85;;;16.10;99.90;;;;;;5022196;28;20057;-75
2022/06/08 08:34:06;;;;;;;8.00;6.00;;;16.00;99.90;;;;;;5009904;28;20045;-74
2022/06/08 08:36:32;;;;;;;12.55;7.20;;;16.20;99.90;;;;;;5006715;28;20034;-74
2022/06/08 08:38:59;;;;;;;13.15;5.88;;;16.20;99.90;;;;;;5026251;28;20485;-75
2022/06/08 08:44:38;;;;;;;13.43;5.70;;;16.30;99.90;;;;;;5030163;28;20040;-75
2022/06/08 08:47:23;;;;;;;11.65;5.80;;;16.40;99.90;;;;;;5037211;28;20051;-74
2022/06/08 08:50:20;;;;;;;9.82;6.13;;;16.50;99.90;;;;;;5015065;28;20044;-73
2022/06/08 08:52:57;;;;;;;10.98;6.32;;;16.50;99.90;;;;;;5032514;28;20037;-74
2022/06/08 08:55:23;;;;;;;9.38;6.10;;;16.50;99.90;;;;;;5031348;28;20473;-74
2022/06/08 08:58:01;;;;;;;11.82;5.72;;;16.50;99.90;;;;;;5027332;28;20044;-75
2022/06/08 09:00:39;;;;;;;11.77;6.65;;;16.50;99.90;;;;;;5033047;28;20433;-73
2022/06/08 09:03:27;;;;;;;10.75;6.50;;;16.60;99.90;;;;;;5013863;28;20505;-75
2022/06/08 09:06:00;;;;;;;14.25;7.10;;;16.70;99.90;;;;;;5034270;28;20027;-75
2022/06/08 09:08:27;;;;;;;10.98;6.35;;;16.70;99.90;;;;;;5007301;28;20543;-74
2022/06/08 09:10:57;;;;;;;10.40;6.53;;;16.80;99.90;;;;;;5023345;28;20026;-73
2022/06/08 09:13:32;;;;;;;12.90;7.78;;;16.90;99.90;;;;;;5001054;28;20026;-73
2022/06/08 09:15:59;;;;;;;10.20;6.18;;;17.00;99.90;;;;;;5028702;28;20041;-73
2022/06/08 09:18:30;;;;;;;14.52;7.45;;;17.00;99.90;;;;;;5008540;28;20029;-73
2022/06/08 09:20:57;;;;;;;11.55;6.40;;;17.10;99.90;;;;;;5028112;28;20022;-74
2022/06/08 09:23:43;;;;;;;12.15;6.93;;;17.10;99.90;;;;;;5015029;28;20051;-75
2022/06/08 09:26:15;;;;;;;11.02;5.90;;;17.30;99.90;;;;;;5034581;28;20028;-74
2022/06/08 09:28:42;;;;;;;8.30;5.38;;;17.40;99.90;;;;;;5033189;28;20017;-73
2022/06/08 09:31:24;;;;;;;8.23;4.78;;;17.60;99.90;;;;;;5018584;28;20018;-74
2022/06/08 09:34:13;;;;;;;8.40;4.85;;;17.70;99.90;;;;;;5034599;28;20021;-76
2022/06/08 09:36:40;;;;;;;10.27;4.82;;;17.90;99.90;;;;;;5034762;28;20026;-73
2022/06/08 09:39:05;;;;;;;7.70;4.55;;;18.20;99.90;;;;;;5033371;28;20489;-73
2022/06/08 09:41:42;;;;;;;9.10;4.38;;;18.20;99.90;;;;;;5036494;28;20048;-73
2022/06/08 09:44:11;;;;;;;7.32;4.65;;;18.50;99.90;;;;;;5012840;28;20189;-74
2022/06/08 09:53:04;;;;;;;5.32;4.38;;;18.70;99.90;;;;;;5034920;28;20087;-73
2022/06/08 09:55:49;;;;;;;8.32;4.75;;;18.70;99.90;;;;;;5039553;28;20367;-72
2022/06/08 09:58:46;;;;;;;7.72;4.20;;;18.90;99.90;;;;;;5018904;28;20026;-72
2022/06/08 10:01:31;;;;;;;6.65;4.18;;;19.00;99.90;;;;;;5022932;28;20483;-72
2022/06/08 10:04:37;;;;;;;10.52;3.95;;;19.20;99.90;;;;;;5007867;28;20022;-73
2022/06/08 10:07:25;;;;;;;5.18;3.50;;;19.20;99.90;;;;;;5016512;28;20088;-72
2022/06/08 10:10:02;;;;;;;7.47;4.30;;;19.50;99.90;;;;;;5039872;28;20028;-72
2022/06/08 10:12:58;;;;;;;8.38;4.13;;;19.60;99.90;;;;;;5017222;28;20037;-73
2022/06/08 10:15:30;;;;;;;6.95;4.70;;;19.90;99.90;;;;;;5019379;28;20029;-74
2022/06/08 10:18:09;;;;;;;8.02;3.72;;;19.90;99.90;;;;;;5031070;28;20515;-73
2022/06/08 10:20:40;;;;;;;8.30;4.88;;;20.00;99.90;;;;;;5027044;28;20030;-73
2022/06/08 10:23:36;;;;;;;10.00;4.30;;;20.10;99.90;;;;;;5015469;28;20036;-73
2022/06/08 10:26:21;;;;;;;9.18;4.65;;;20.10;99.90;;;;;;5034395;28;20151;-73
2022/06/08 10:28:52;;;;;;;7.15;4.00;;;20.00;99.90;;;;;;5013558;28;20057;-74
2022/06/08 10:31:30;;;;;;;9.82;4.30;;;20.10;99.90;;;;;;5019320;28;20065;-73
2022/06/08 10:34:05;;;;;;;8.15;4.82;;;20.20;99.90;;;;;;5035398;28;20026;-72
2022/06/08 10:36:33;;;;;;;14.68;4.90;;;20.30;99.90;;;;;;5021182;28;20029;-73
2022/06/08 10:39:04;;;;;;;7.40;4.32;;;20.20;99.90;;;;;;5016227;28;20030;-72
2022/06/08 10:44:48;;;;;;;5.70;4.57;;;20.30;99.90;;;;;;5023123;28;20029;-72
2022/06/08 10:47:16;;;;;;;6.57;3.85;;;20.60;99.90;;;;;;5024356;28;20037;-72
2022/06/08 10:49:50;;;;;;;6.28;4.28;;;20.80;99.90;;;;;;5008524;28;20406;-73
2022/06/08 10:55:46;;;;;;;9.40;5.30;;;20.70;99.90;;;;;;4999638;28;20044;-74
2022/06/08 10:58:15;;;;;;;10.10;5.18;;;20.60;99.90;;;;;;5031492;28;20020;-73
2022/06/08 11:00:52;;;;;;;7.03;4.60;;;20.40;99.90;;;;;;5015648;28;20126;-73
2022/06/08 11:03:42;;;;;;;7.78;4.53;;;20.50;99.90;;;;;;5035544;28;20028;-73
2022/06/08 11:06:10;;;;;;;12.02;4.97;;;20.50;99.90;;;;;;5033805;28;20022;-73
2022/06/08 11:08:51;;;;;;;7.32;5.15;;;20.30;99.90;;;;;;5038457;28;20028;-72
2022/06/08 11:11:38;;;;;;;11.15;4.93;;;20.20;99.90;;;;;;5015524;28;20112;-72
2022/06/08 11:14:29;;;;;;;8.82;4.75;;;20.20;99.90;;;;;;5003104;28;20026;-73
2022/06/08 11:17:02;;;;;;;10.68;5.15;;;20.50;99.90;;;;;;5028942;28;20072;-72
2022/06/08 11:19:31;;;;;;;10.77;5.85;;;20.70;99.90;;;;;;5027430;28;20036;-73
2022/06/08 11:22:00;;;;;;;7.60;5.65;;;21.10;99.90;;;;;;5024181;28;20463;-73
2022/06/08 11:24:38;;;;;;;8.10;5.25;;;21.00;99.90;;;;;;5031534;28;20025;-73
2022/06/08 11:27:10;;;;;;;9.65;5.78;;;20.90;99.90;;;;;;5009497;28;20402;-74
2022/06/08 11:29:44;;;;;;;8.38;5.93;;;20.70;99.90;;;;;;5015067;28;20076;-73
2022/06/08 11:32:34;;;;;;;8.15;5.10;;;20.70;99.90;;;;;;5033420;28;20449;-73
2022/06/08 11:35:25;;;;;;;11.98;6.50;;;20.50;99.90;;;;;;5028395;28;20048;-73
2022/06/08 11:38:12;;;;;;;6.68;5.13;;;20.40;99.90;;;;;;5034825;28;20037;-73
2022/06/08 11:40:38;;;;;;;11.25;5.85;;;20.30;99.90;;;;;;5035865;28;20045;-72
2022/06/08 11:43:15;;;;;;;10.48;5.90;;;20.10;99.90;;;;;;5024107;28;20025;-74
2022/06/08 11:45:52;;;;;;;11.07;5.60;;;20.20;99.90;;;;;;5025180;28;20028;-73
2022/06/08 11:48:21;;;;;;;9.20;5.95;;;20.20;99.90;;;;;;5016107;28;20055;-74
2022/06/08 11:50:50;;;;;;;10.10;5.75;;;20.10;99.90;;;;;;5032280;28;20029;-72
2022/06/08 11:53:29;;;;;;;13.47;5.93;;;20.10;99.90;;;;;;5031246;28;20055;-72
2022/06/08 11:56:27;;;;;;;8.60;5.38;;;20.10;99.90;;;;;;5033603;28;20033;-73
2022/06/08 11:58:57;;;;;;;8.52;5.45;;;20.10;99.90;;;;;;5028195;28;20104;-73
2022/06/08 12:01:29;;;;;;;9.23;6.03;;;20.20;99.90;;;;;;5034721;28;20032;-73
2022/06/08 12:04:03;;;;;;;8.40;5.03;;;20.10;99.90;;;;;;5036131;28;20018;-72
2022/06/08 12:06:38;;;;;;;10.02;5.00;;;20.10;99.90;;;;;;5033771;28;20096;-72
2022/06/08 12:09:15;;;;;;;7.20;5.50;;;20.10;99.90;;;;;;5034157;28;20052;-73
2022/06/08 12:11:52;;;;;;;9.02;5.30;;;20.20;99.90;;;;;;5036339;28;20018;-73
2022/06/08 12:14:33;;;;;;;8.85;4.72;;;20.10;99.90;;;;;;5034609;28;20022;-72
2022/06/08 12:17:04;;;;;;;9.45;4.70;;;20.10;99.90;;;;;;5032888;28;20014;-73
2022/06/08 12:19:40;;;;;;;8.27;4.63;;;20.00;99.90;;;;;;5017708;28;20060;-72
2022/06/08 12:22:25;;;;;;;10.23;5.00;;;19.90;99.90;;;;;;5011046;28;20116;-73
2022/06/08 12:25:06;;;;;;;7.70;5.18;;;20.10;99.90;;;;;;5032184;28;20028;-72
2022/06/08 12:27:40;;;;;;;8.00;4.65;;;20.30;99.90;;;;;;5017840;28;20060;-72
2022/06/08 12:30:36;;;;;;;8.77;5.07;;;20.60;99.90;;;;;;5015933;28;20029;-72
2022/06/08 12:33:24;;;;;;;5.18;4.60;;;20.90;99.90;;;;;;5011256;28;20036;-73
2022/06/08 12:36:08;;;;;;;8.55;4.13;;;20.90;99.90;;;;;;5037740;28;20033;-73
2022/06/08 12:38:36;;;;;;;8.25;4.90;;;20.90;99.90;;;;;;5015966;28;20018;-72
2022/06/08 12:41:02;;;;;;;9.45;4.45;;;21.00;99.90;;;;;;5037096;28;20104;-73
2022/06/08 12:43:51;;;;;;;8.98;4.15;;;21.10;99.90;;;;;;5014083;28;20018;-73
2022/06/08 12:46:31;;;;;;;11.55;3.92;;;21.00;99.90;;;;;;5028913;28;20032;-72
2022/06/08 12:49:14;;;;;;;7.25;4.15;;;20.80;99.90;;;;;;5025023;28;20413;-73
2022/06/08 12:51:47;;;;;;;9.20;3.75;;;20.80;99.90;;;;;;5016690;28;20034;-72
2022/06/08 12:54:26;;;;;;;4.95;3.40;;;21.00;99.90;;;;;;5035801;28;20026;-73
2022/06/08 12:56:56;;;;;;;8.65;4.13;;;21.10;99.90;;;;;;5036080;28;20025;-73
2022/06/08 12:59:23;;;;;;;6.45;3.83;;;21.10;99.90;;;;;;5006689;28;20045;-73
2022/06/08 13:01:49;;;;;;;8.00;3.75;;;21.20;99.90;;;;;;5018859;28;20030;-72
2022/06/08 13:04:19;;;;;;;5.82;2.88;;;21.40;99.90;;;;;;5019770;28;20014;-73
2022/06/08 13:06:45;;;;;;;3.53;2.50;;;21.50;99.90;;;;;;5026475;28;20484;-73
2022/06/08 13:09:17;;;;;;;7.60;3.17;;;21.50;99.90;;;;;;5028931;28;20459;-74
2022/06/08 13:11:45;;;;;;;8.23;3.15;;;21.30;99.90;;;;;;5026767;28;20048;-73
2022/06/08 13:14:16;;;;;;;5.32;2.63;;;21.20;99.90;;;;;;5014831;28;20025;-74
2022/06/08 13:16:44;;;;;;;4.30;2.55;;;21.30;99.90;;;;;;5019492;28;20036;-72
2022/06/08 13:19:14;;;;;;;5.75;2.70;;;21.40;99.90;;;;;;5033291;28;20021;-73
2022/06/08 13:21:42;;;;;;;3.92;2.05;;;21.40;99.90;;;;;;5023189;28;20394;-75
2022/06/08 13:24:09;;;;;;;7.88;2.67;;;21.30;99.90;;;;;;5034685;28;20017;-73
2022/06/08 13:26:37;;;;;;;2.83;2.10;;;21.50;99.90;;;;;;5026515;28;20432;-73